FlightSource - Aviation Photo Database

World Wide Airport Lookup


Search by ICAO
Or
Search by City

FlightSource.ca - Aviation Photo Database - Mikkeli Airport Information
Airport Identification
Name: Mikkeli Airport
ICAO: EFMI
IATA: MIK
Airport Location
City: Mikkeli
Region: IS
Country: Finland
Continent: Europe
Latitude: 61.6866
Longitude: 27.2018
Airport Information
Type: Medium Airport
Elevation: 329 Feet ASL
Flight Status: EFMI
More Info: EFMI
Airport Weather    
Metar: EFMI 191420Z AUTO 16004KT 110V220 9999 RA SCT051 BKN070 20/18 Q1009
TAF:


Advertisement